Time,TemperatureF,DewpointF,PressureIn,WindDirection,WindDirectionDegrees,WindSpeedMPH,WindSpeedGustMPH,Humidity,HourlyPrecipIn,Conditions,Clouds,dailyrainin,SoftwareType,DateUTC
2013-03-23 00:02:00,31.0,22.0,29.98,WSW,253,1.0,5.0,69,0.00,,,0.09,,2013-03-23 04:02:00,
2013-03-23 00:12:00,31.0,22.0,29.98,WSW,253,1.0,5.0,69,0.00,,,0.09,,2013-03-23 04:12:00,
2013-03-23 00:23:00,31.0,23.0,29.99,West,262,0.0,2.0,72,0.00,,,0.09,,2013-03-23 04:23:00,
2013-03-23 00:32:00,30.0,22.0,29.99,WSW,256,1.0,2.0,72,0.00,,,0.09,,2013-03-23 04:32:00,
2013-03-23 00:43:00,30.0,22.0,29.99,WSW,256,1.0,2.0,72,0.00,,,0.09,,2013-03-23 04:43:00,
2013-03-23 00:53:00,30.0,23.0,29.99,West,271,0.0,2.0,74,0.00,,,0.09,,2013-03-23 04:53:00,
2013-03-23 01:02:00,30.0,23.0,29.99,West,273,0.0,1.0,74,0.00,,,0.09,,2013-03-23 05:02:00,
2013-03-23 01:12:00,30.0,23.0,29.99,West,273,0.0,1.0,74,0.00,,,0.09,,2013-03-23 05:12:00,
2013-03-23 01:22:00,29.0,22.0,30.00,WSW,245,0.0,1.0,76,0.00,,,0.09,,2013-03-23 05:22:00,
2013-03-23 01:32:00,29.0,22.0,30.00,WSW,245,0.0,1.0,76,0.00,,,0.09,,2013-03-23 05:32:00,
2013-03-23 01:42:00,29.0,22.0,30.00,WSW,245,0.0,1.0,76,0.00,,,0.09,,2013-03-23 05:42:00,
2013-03-23 01:53:00,29.0,22.0,29.99,West,273,2.0,5.0,74,0.00,,,0.09,,2013-03-23 05:53:00,
2013-03-23 02:02:00,29.0,22.0,29.99,West,273,2.0,5.0,74,0.00,,,0.09,,2013-03-23 06:02:00,
2013-03-23 02:12:00,29.0,22.0,29.99,West,273,2.0,5.0,74,0.00,,,0.09,,2013-03-23 06:12:00,
2013-03-23 02:22:00,29.0,21.0,30.00,WNW,294,0.0,3.0,71,0.00,,,0.09,,2013-03-23 06:22:00,
2013-03-23 02:32:00,29.0,21.0,30.00,WNW,294,0.0,2.0,72,0.00,,,0.09,,2013-03-23 06:32:00,
2013-03-23 02:42:00,29.0,21.0,30.00,WNW,294,0.0,2.0,72,0.00,,,0.09,,2013-03-23 06:42:00,
2013-03-23 02:52:00,28.0,20.0,30.00,West,276,0.0,1.0,72,0.00,,,0.09,,2013-03-23 06:52:00,
2013-03-23 03:02:00,28.0,20.0,29.99,West,276,1.0,2.0,73,0.00,,,0.09,,2013-03-23 07:02:00,
2013-03-23 03:12:00,28.0,20.0,29.99,West,276,1.0,2.0,73,0.00,,,0.09,,2013-03-23 07:12:00,
2013-03-23 03:22:00,28.0,20.0,29.98,WSW,256,1.0,2.0,73,0.00,,,0.09,,2013-03-23 07:22:00,
2013-03-23 03:32:00,28.0,20.0,29.98,WSW,256,1.0,2.0,73,0.00,,,0.09,,2013-03-23 07:32:00,
2013-03-23 03:42:00,28.0,20.0,29.98,WSW,256,1.0,2.0,73,0.00,,,0.09,,2013-03-23 07:42:00,
2013-03-23 03:52:00,28.0,21.0,29.98,West,274,0.0,2.0,74,0.00,,,0.09,,2013-03-23 07:52:00,
2013-03-23 04:02:00,28.0,21.0,29.98,West,274,0.0,1.0,76,0.00,,,0.09,,2013-03-23 08:02:00,
2013-03-23 04:13:00,28.0,21.0,29.98,West,274,0.0,1.0,76,0.00,,,0.09,,2013-03-23 08:13:00,
2013-03-23 04:22:00,27.0,20.0,29.97,West,262,1.0,3.0,76,0.00,,,0.09,,2013-03-23 08:22:00,
2013-03-23 04:32:00,27.0,20.0,29.97,West,262,1.0,3.0,76,0.00,,,0.09,,2013-03-23 08:32:00,
2013-03-23 04:42:00,27.0,20.0,29.97,West,262,1.0,3.0,76,0.00,,,0.09,,2013-03-23 08:42:00,
2013-03-23 04:53:00,27.0,21.0,29.97,West,276,0.0,2.0,77,0.00,,,0.09,,2013-03-23 08:53:00,
2013-03-23 05:02:00,27.0,21.0,29.97,WSW,250,0.0,1.0,77,0.00,,,0.09,,2013-03-23 09:02:00,
2013-03-23 05:12:00,27.0,21.0,29.97,WSW,250,0.0,1.0,77,0.00,,,0.09,,2013-03-23 09:12:00,
2013-03-23 05:22:00,27.0,21.0,29.97,West,269,0.0,1.0,78,0.00,,,0.09,,2013-03-23 09:22:00,
2013-03-23 05:33:00,26.0,20.0,29.97,West,267,0.0,0.0,79,0.00,,,0.09,,2013-03-23 09:33:00,
2013-03-23 05:43:00,26.0,20.0,29.97,West,267,0.0,0.0,79,0.00,,,0.09,,2013-03-23 09:43:00,
2013-03-23 05:53:00,26.0,20.0,29.97,West,267,0.0,0.0,79,0.00,,,0.09,,2013-03-23 09:53:00,
2013-03-23 06:03:00,26.0,20.0,29.97,WSW,248,0.0,1.0,79,0.00,,,0.09,,2013-03-23 10:03:00,
2013-03-23 06:13:00,26.0,20.0,29.97,WSW,248,0.0,1.0,79,0.00,,,0.09,,2013-03-23 10:13:00,
2013-03-23 06:23:00,26.0,20.0,29.97,WSW,248,0.0,1.0,79,0.00,,,0.09,,2013-03-23 10:23:00,
2013-03-23 06:34:00,26.0,20.0,29.97,WSW,248,0.0,1.0,79,0.00,,,0.09,,2013-03-23 10:34:00,
2013-03-23 06:53:00,26.0,21.0,29.96,WSW,252,1.0,1.0,80,0.00,,,0.09,,2013-03-23 10:53:00,
2013-03-23 07:03:00,26.0,21.0,29.96,WSW,252,1.0,1.0,80,0.00,,,0.09,,2013-03-23 11:03:00,
2013-03-23 07:12:00,26.0,21.0,29.96,WSW,252,1.0,1.0,80,0.00,,,0.09,,2013-03-23 11:12:00,
2013-03-23 07:22:00,26.0,21.0,29.96,West,273,0.0,2.0,80,0.00,,,0.09,,2013-03-23 11:22:00,
2013-03-23 07:32:00,26.0,21.0,29.96,West,270,0.0,2.0,80,0.00,,,0.09,,2013-03-23 11:32:00,
2013-03-23 07:42:00,26.0,21.0,29.96,West,270,0.0,2.0,80,0.00,,,0.09,,2013-03-23 11:42:00,
2013-03-23 07:51:00,27.0,21.0,29.96,WSW,256,1.0,3.0,79,0.00,,,0.09,,2013-03-23 11:51:00,
2013-03-23 08:02:00,27.0,21.0,29.96,WSW,256,1.0,3.0,79,0.00,,,0.09,,2013-03-23 12:02:00,
2013-03-23 08:13:00,27.0,21.0,29.96,WSW,256,1.0,3.0,79,0.00,,,0.09,,2013-03-23 12:13:00,
2013-03-23 08:22:00,29.0,23.0,29.96,West,264,2.0,3.0,77,0.00,,,0.09,,2013-03-23 12:22:00,
2013-03-23 08:33:00,29.0,23.0,29.96,West,264,2.0,3.0,77,0.00,,,0.09,,2013-03-23 12:33:00,
2013-03-23 08:43:00,29.0,23.0,29.96,West,264,2.0,3.0,77,0.00,,,0.09,,2013-03-23 12:43:00,
2013-03-23 08:53:00,31.0,23.0,29.96,WSW,253,1.0,7.0,72,0.00,,,0.09,,2013-03-23 12:53:00,
2013-03-23 09:03:00,32.0,24.0,29.96,West,280,2.0,7.0,71,0.00,,,0.09,,2013-03-23 13:03:00,
2013-03-23 09:12:00,32.0,24.0,29.96,West,280,2.0,7.0,71,0.00,,,0.09,,2013-03-23 13:12:00,
2013-03-23 09:23:00,33.0,24.0,29.96,WNW,286,1.0,5.0,69,0.00,,,0.09,,2013-03-23 13:23:00,
2013-03-23 09:33:00,34.0,24.0,29.95,West,279,2.0,5.0,67,0.00,,,0.09,,2013-03-23 13:33:00,
2013-03-23 09:43:00,34.0,24.0,29.95,West,279,2.0,5.0,67,0.00,,,0.09,,2013-03-23 13:43:00,
2013-03-23 09:53:00,35.0,24.0,29.94,West,265,1.0,5.0,64,0.00,,,0.09,,2013-03-23 13:53:00,
2013-03-23 10:03:00,35.0,24.0,29.94,WSW,240,1.0,5.0,64,0.00,,,0.09,,2013-03-23 14:03:00,
2013-03-23 10:12:00,35.0,24.0,29.94,WSW,240,1.0,5.0,64,0.00,,,0.09,,2013-03-23 14:12:00,
2013-03-23 10:23:00,36.0,25.0,29.94,West,272,1.0,7.0,63,0.00,,,0.09,,2013-03-23 14:23:00,
2013-03-23 10:32:00,36.0,23.0,29.94,West,266,2.0,3.0,60,0.00,,,0.09,,2013-03-23 14:32:00,
2013-03-23 10:43:00,36.0,23.0,29.94,West,266,2.0,3.0,60,0.00,,,0.09,,2013-03-23 14:43:00,
2013-03-23 10:53:00,37.0,23.0,29.93,WNW,286,5.0,12.0,56,0.00,,,0.09,,2013-03-23 14:53:00,
2013-03-23 11:03:00,37.0,23.0,29.93,West,263,3.0,7.0,57,0.00,,,0.09,,2013-03-23 15:03:00,
2013-03-23 11:12:00,37.0,23.0,29.93,West,263,3.0,7.0,57,0.00,,,0.09,,2013-03-23 15:12:00,
2013-03-23 11:22:00,38.0,23.0,29.92,West,277,3.0,7.0,54,0.00,,,0.09,,2013-03-23 15:22:00,
2013-03-23 11:33:00,38.0,22.0,29.92,West,266,3.0,5.0,53,0.00,,,0.09,,2013-03-23 15:33:00,
2013-03-23 11:43:00,38.0,22.0,29.92,West,266,3.0,5.0,53,0.00,,,0.09,,2013-03-23 15:43:00,
2013-03-23 11:53:00,39.0,22.0,29.92,West,277,3.0,7.0,51,0.00,,,0.09,,2013-03-23 15:53:00,
2013-03-23 12:03:00,39.0,23.0,29.92,NW,308,3.0,7.0,52,0.00,,,0.09,,2013-03-23 16:03:00,
2013-03-23 12:13:00,39.0,23.0,29.92,NW,308,3.0,7.0,52,0.00,,,0.09,,2013-03-23 16:13:00,
2013-03-23 12:23:00,39.0,20.0,29.91,SW,229,5.0,9.0,46,0.00,,,0.08,,2013-03-23 16:23:00,
2013-03-23 12:33:00,40.0,22.0,29.91,WSW,243,5.0,10.0,48,0.00,,,0.07,,2013-03-23 16:33:00,
2013-03-23 12:43:00,40.0,22.0,29.91,WSW,243,5.0,10.0,48,0.00,,,0.07,,2013-03-23 16:43:00,
2013-03-23 12:54:00,39.0,21.0,29.91,SSW,210,3.0,6.0,49,0.00,,,0.06,,2013-03-23 16:54:00,
2013-03-23 13:03:00,39.0,20.0,29.91,WNW,288,3.0,6.0,46,0.00,,,0.05,,2013-03-23 17:03:00,
2013-03-23 13:12:00,40.0,21.0,29.91,South,183,3.0,7.0,47,0.00,,,0.03,,2013-03-23 17:12:00,
2013-03-23 13:23:00,40.0,21.0,29.91,South,183,3.0,7.0,47,0.00,,,0.03,,2013-03-23 17:23:00,
2013-03-23 13:33:00,39.0,20.0,29.91,NW,311,3.0,8.0,47,0.00,,,0.02,,2013-03-23 17:33:00,
2013-03-23 13:42:00,39.0,20.0,29.91,NW,311,3.0,8.0,47,0.00,,,0.02,,2013-03-23 17:42:00,
2013-03-23 13:53:00,39.0,20.0,29.91,West,260,4.0,8.0,46,0.00,,,0.02,,2013-03-23 17:53:00,
2013-03-23 14:03:00,40.0,20.0,29.90,West,281,2.0,9.0,45,0.00,,,0.01,,2013-03-23 18:03:00,
2013-03-23 14:12:00,40.0,20.0,29.90,West,281,2.0,9.0,45,0.00,,,0.01,,2013-03-23 18:12:00,
2013-03-23 14:22:00,41.0,23.0,29.90,WNW,302,3.0,7.0,48,0.00,,,0.01,,2013-03-23 18:22:00,
2013-03-23 14:32:00,41.0,22.0,29.91,WNW,293,3.0,8.0,47,0.00,,,0.00,,2013-03-23 18:32:00,
2013-03-23 14:43:00,41.0,22.0,29.91,WNW,293,3.0,8.0,47,0.00,,,0.00,,2013-03-23 18:43:00,
2013-03-23 14:53:00,41.0,22.0,29.90,West,260,2.0,5.0,47,0.00,,,0.00,,2013-03-23 18:53:00,
2013-03-23 15:03:00,41.0,22.0,29.90,West,262,3.0,9.0,46,0.00,,,0.00,,2013-03-23 19:03:00,
2013-03-23 15:13:00,41.0,22.0,29.90,West,262,3.0,9.0,46,0.00,,,0.00,,2013-03-23 19:13:00,
2013-03-23 15:23:00,40.0,21.0,29.89,West,266,2.0,8.0,47,0.00,,,0.00,,2013-03-23 19:23:00,
2013-03-23 15:32:00,40.0,21.0,29.89,West,266,2.0,8.0,47,0.00,,,0.00,,2013-03-23 19:32:00,
2013-03-23 15:42:00,40.0,21.0,29.89,West,266,2.0,8.0,47,0.00,,,0.00,,2013-03-23 19:42:00,
2013-03-23 15:53:00,40.0,22.0,29.89,West,266,3.0,6.0,48,0.00,,,0.00,,2013-03-23 19:53:00,
2013-03-23 16:03:00,40.0,21.0,29.90,WNW,294,2.0,9.0,47,0.00,,,0.00,,2013-03-23 20:03:00,
2013-03-23 16:13:00,40.0,21.0,29.90,WNW,294,2.0,9.0,47,0.00,,,0.00,,2013-03-23 20:13:00,
2013-03-23 16:22:00,41.0,21.0,29.90,WSW,249,2.0,6.0,45,0.00,,,0.00,,2013-03-23 20:22:00,
2013-03-23 16:32:00,42.0,22.0,29.89,WNW,293,2.0,9.0,45,0.00,,,0.00,,2013-03-23 20:32:00,
2013-03-23 16:42:00,42.0,22.0,29.89,WNW,293,2.0,9.0,45,0.00,,,0.00,,2013-03-23 20:42:00,
2013-03-23 16:53:00,42.0,21.0,29.90,West,278,5.0,12.0,42,0.00,,,0.00,,2013-03-23 20:53:00,
2013-03-23 17:02:00,42.0,21.0,29.90,West,278,5.0,12.0,42,0.00,,,0.00,,2013-03-23 21:02:00,
2013-03-23 17:12:00,42.0,21.0,29.90,West,278,5.0,12.0,42,0.00,,,0.00,,2013-03-23 21:12:00,
2013-03-23 17:22:00,40.0,22.0,29.91,West,278,2.0,8.0,48,0.00,,,0.00,,2013-03-23 21:22:00,
2013-03-23 17:33:00,40.0,22.0,29.92,NW,308,2.0,6.0,49,0.00,,,0.00,,2013-03-23 21:33:00,
2013-03-23 17:43:00,40.0,22.0,29.92,NW,308,2.0,6.0,49,0.00,,,0.00,,2013-03-23 21:43:00,
2013-03-23 17:54:00,40.0,22.0,29.92,NW,308,2.0,6.0,49,0.00,,,0.00,,2013-03-23 21:54:00,
2013-03-23 18:03:00,40.0,22.0,29.93,West,262,3.0,7.0,49,0.00,,,0.00,,2013-03-23 22:03:00,
2013-03-23 18:13:00,40.0,22.0,29.93,West,262,3.0,7.0,49,0.00,,,0.00,,2013-03-23 22:13:00,
2013-03-23 18:23:00,40.0,22.0,29.94,West,273,2.0,14.0,48,0.00,,,0.00,,2013-03-23 22:23:00,
2013-03-23 18:33:00,39.0,20.0,29.94,WSW,238,5.0,12.0,47,0.00,,,0.00,,2013-03-23 22:33:00,
2013-03-23 18:42:00,39.0,20.0,29.94,WSW,238,5.0,12.0,47,0.00,,,0.00,,2013-03-23 22:42:00,
2013-03-23 18:53:00,38.0,21.0,29.96,East,79,1.0,6.0,50,0.00,,,0.00,,2013-03-23 22:53:00,
2013-03-23 19:02:00,38.0,21.0,29.96,WNW,285,2.0,8.0,50,0.00,,,0.00,,2013-03-23 23:02:00,
2013-03-23 19:13:00,38.0,21.0,29.96,WNW,285,2.0,8.0,50,0.00,,,0.00,,2013-03-23 23:13:00,
2013-03-23 19:23:00,38.0,23.0,29.98,WNW,284,1.0,6.0,54,0.00,,,0.00,,2013-03-23 23:23:00,
2013-03-23 19:33:00,38.0,22.0,29.98,WSW,252,1.0,5.0,53,0.00,,,0.00,,2013-03-23 23:33:00,
2013-03-23 19:43:00,38.0,22.0,29.98,WSW,252,1.0,5.0,53,0.00,,,0.00,,2013-03-23 23:43:00,
2013-03-23 19:52:00,37.0,23.0,29.99,WSW,243,1.0,6.0,57,0.00,,,0.00,,2013-03-23 23:52:00,
2013-03-23 20:02:00,37.0,22.0,29.99,WNW,283,1.0,7.0,54,0.00,,,0.00,,2013-03-24 00:02:00,
2013-03-23 20:13:00,37.0,22.0,29.99,WNW,283,1.0,7.0,54,0.00,,,0.00,,2013-03-24 00:13:00,
2013-03-23 20:23:00,37.0,22.0,30.00,WNW,301,1.0,3.0,55,0.00,,,0.00,,2013-03-24 00:23:00,
2013-03-23 20:33:00,37.0,21.0,30.01,WSW,254,1.0,5.0,53,0.00,,,0.00,,2013-03-24 00:33:00,
2013-03-23 20:42:00,37.0,21.0,30.01,WSW,254,1.0,5.0,53,0.00,,,0.00,,2013-03-24 00:42:00,
2013-03-23 20:53:00,37.0,22.0,30.02,West,260,1.0,6.0,55,0.00,,,0.00,,2013-03-24 00:53:00,
2013-03-23 21:02:00,37.0,22.0,30.02,WSW,246,2.0,6.0,54,0.00,,,0.00,,2013-03-24 01:02:00,
2013-03-23 21:12:00,37.0,22.0,30.02,WSW,246,2.0,6.0,54,0.00,,,0.00,,2013-03-24 01:12:00,
2013-03-23 21:22:00,37.0,24.0,30.03,West,271,1.0,6.0,58,0.00,,,0.00,,2013-03-24 01:22:00,
2013-03-23 21:33:00,36.0,23.0,30.03,West,263,0.0,5.0,58,0.00,,,0.00,,2013-03-24 01:33:00,
2013-03-23 21:42:00,36.0,23.0,30.03,West,263,0.0,5.0,58,0.00,,,0.00,,2013-03-24 01:42:00,
2013-03-23 21:53:00,35.0,23.0,30.03,West,273,1.0,3.0,61,0.00,,,0.00,,2013-03-24 01:53:00,
2013-03-23 22:03:00,35.0,23.0,30.03,West,271,2.0,5.0,60,0.00,,,0.00,,2013-03-24 02:03:00,
2013-03-23 22:12:00,35.0,23.0,30.03,West,271,2.0,5.0,60,0.00,,,0.00,,2013-03-24 02:12:00,
2013-03-23 22:22:00,35.0,23.0,30.03,West,279,2.0,3.0,62,0.00,,,0.00,,2013-03-24 02:22:00,
2013-03-23 22:32:00,35.0,23.0,30.03,West,277,1.0,3.0,61,0.00,,,0.00,,2013-03-24 02:32:00,
2013-03-23 22:42:00,35.0,23.0,30.03,West,277,1.0,3.0,61,0.00,,,0.00,,2013-03-24 02:42:00,
2013-03-23 22:52:00,34.0,23.0,30.03,West,276,0.0,2.0,63,0.00,,,0.00,,2013-03-24 02:52:00,
2013-03-23 23:02:00,34.0,24.0,30.03,West,271,0.0,3.0,66,0.00,,,0.00,,2013-03-24 03:02:00,
2013-03-23 23:12:00,34.0,24.0,30.03,West,271,0.0,3.0,66,0.00,,,0.00,,2013-03-24 03:12:00,
2013-03-23 23:23:00,34.0,24.0,30.03,NW,309,0.0,2.0,67,0.00,,,0.00,,2013-03-24 03:23:00,
2013-03-23 23:33:00,34.0,24.0,30.03,WNW,297,0.0,2.0,66,0.00,,,0.00,,2013-03-24 03:33:00,
2013-03-23 23:42:00,34.0,24.0,30.03,WNW,297,0.0,2.0,66,0.00,,,0.00,,2013-03-24 03:42:00,
2013-03-23 23:53:00,33.0,23.0,30.03,WSW,256,1.0,2.0,66,0.00,,,0.00,,2013-03-24 03:53:00,